createdAt,value
2023-10-06T00:02:20.407Z,101936.04
2023-10-06T00:04:48.786Z,101935.30
2023-10-06T00:07:18.275Z,101933.48
2023-10-06T00:09:46.454Z,101932.32
2023-10-06T00:12:16.960Z,101923.77
2023-10-06T00:14:45.209Z,101930.08
2023-10-06T00:17:17.461Z,101926.17
2023-10-06T00:19:49.070Z,101917.77
2023-10-06T00:22:18.730Z,101917.38
2023-10-06T00:24:48.947Z,101912.06
2023-10-06T00:27:18.770Z,101909.98
2023-10-06T00:29:46.943Z,101903.92
2023-10-06T00:32:16.425Z,101897.70
2023-10-06T00:34:44.645Z,101897.88
2023-10-06T00:37:16.858Z,101894.09
2023-10-06T00:39:45.265Z,101890.45
2023-10-06T00:42:15.269Z,101890.23
2023-10-06T00:44:43.427Z,101883.67
2023-10-06T00:47:14.965Z,101878.23
2023-10-06T00:49:43.347Z,101874.50
2023-10-06T00:52:13.853Z,101871.55
2023-10-06T00:54:43.558Z,101869.09
2023-10-06T00:57:13.460Z,101869.34
2023-10-06T00:59:41.836Z,101861.05
2023-10-06T01:02:11.652Z,101857.56
2023-10-06T01:04:41.063Z,101857.09
2023-10-06T01:07:13.619Z,101853.77
2023-10-06T01:09:56.213Z,101853.36
2023-10-06T01:12:25.853Z,101852.44
2023-10-06T01:14:54.165Z,101855.58
2023-10-06T01:17:24.714Z,101856.57
2023-10-06T01:19:52.977Z,101855.13
2023-10-06T01:22:24.615Z,101847.90
2023-10-06T01:24:55.486Z,101843.92
2023-10-06T01:27:26.087Z,101838.41
2023-10-06T01:29:57.650Z,101838.58
2023-10-06T01:32:27.223Z,101835.92
2023-10-06T01:34:55.598Z,101835.44
2023-10-06T01:37:25.169Z,101832.02
2023-10-06T01:39:53.407Z,101829.47
2023-10-06T01:42:23.939Z,101813.92
2023-10-06T01:44:52.166Z,101816.52
2023-10-06T01:47:21.735Z,101809.48
2023-10-06T01:49:49.971Z,101807.53
2023-10-06T01:52:20.546Z,101805.37
2023-10-06T01:54:48.850Z,101800.45
2023-10-06T01:57:19.359Z,101796.81
2023-10-06T01:59:47.554Z,101797.03
2023-10-06T02:02:18.195Z,101788.40
2023-10-06T02:04:47.235Z,101779.48
2023-10-06T02:07:17.836Z,101768.63
2023-10-06T02:09:46.022Z,101767.27
2023-10-06T02:12:16.526Z,101759.41
2023-10-06T02:14:44.774Z,101755.36
2023-10-06T02:17:15.351Z,101747.96
2023-10-06T02:19:43.677Z,101747.73
2023-10-06T02:22:14.206Z,101741.59
2023-10-06T02:24:42.491Z,101742.06
2023-10-06T02:27:13.063Z,101742.22
2023-10-06T02:29:41.314Z,101739.90
2023-10-06T02:32:11.910Z,101736.55
2023-10-06T02:34:40.736Z,101733.13
2023-10-06T02:37:10.501Z,101723.27
2023-10-06T02:39:38.750Z,101713.07
2023-10-06T02:42:09.348Z,101703.27
2023-10-06T02:44:37.613Z,101700.96
2023-10-06T02:47:09.261Z,101702.86
2023-10-06T02:49:37.788Z,101694.44
2023-10-06T02:52:07.610Z,101692.34
2023-10-06T02:54:35.934Z,101683.44
2023-10-06T02:57:06.428Z,101678.56
2023-10-06T02:59:34.805Z,101668.28
2023-10-06T03:02:05.630Z,101660.95
2023-10-06T03:04:34.090Z,101646.38
2023-10-06T03:07:04.221Z,101637.52
2023-10-06T03:09:32.501Z,101637.48
2023-10-06T03:12:04.238Z,101641.15
2023-10-06T03:14:32.479Z,101629.56
2023-10-06T03:17:02.055Z,101630.51
2023-10-06T03:19:30.322Z,101627.23
2023-10-06T03:22:00.843Z,101622.53
2023-10-06T03:24:29.043Z,101613.89
2023-10-06T03:26:59.620Z,101612.54
2023-10-06T03:29:28.244Z,101598.83
2023-10-06T03:31:58.812Z,101585.31
2023-10-06T03:34:27.056Z,101585.55
2023-10-06T03:36:57.677Z,101581.38
2023-10-06T03:39:25.887Z,101578.89
2023-10-06T03:41:55.576Z,101568.19
2023-10-06T03:44:23.885Z,101550.91
2023-10-06T03:46:55.040Z,101538.24
2023-10-06T03:49:23.478Z,101538.10
2023-10-06T03:51:53.002Z,101538.35
2023-10-06T03:54:21.300Z,101537.73
2023-10-06T03:56:51.813Z,101538.15
2023-10-06T03:59:20.166Z,101540.00
2023-10-06T04:01:50.780Z,101527.63
2023-10-06T04:04:19.060Z,101522.70
2023-10-06T04:06:51.001Z,101512.64
2023-10-06T04:09:19.250Z,101499.16
2023-10-06T04:11:48.732Z,101497.98
2023-10-06T04:14:17.028Z,101493.40
2023-10-06T04:16:46.608Z,101488.86
2023-10-06T04:19:15.116Z,101480.79
2023-10-06T04:21:44.049Z,101471.19
2023-10-06T04:24:12.253Z,101465.59
2023-10-06T04:26:42.820Z,101454.96
2023-10-06T04:29:11.153Z,101449.30
2023-10-06T04:31:41.083Z,101444.48
2023-10-06T04:34:09.364Z,101435.08
2023-10-06T04:36:38.887Z,101436.67
2023-10-06T04:39:07.194Z,101433.36
2023-10-06T04:41:36.779Z,101425.77
2023-10-06T04:44:05.451Z,101423.20
2023-10-06T04:46:35.072Z,101420.49
2023-10-06T04:49:03.558Z,101407.34
2023-10-06T04:51:33.070Z,101406.95
2023-10-06T04:54:01.493Z,101397.38
2023-10-06T04:56:31.048Z,101395.92
2023-10-06T04:58:59.536Z,101398.23
2023-10-06T05:01:31.279Z,101389.58
2023-10-06T05:03:59.636Z,101384.00
2023-10-06T05:06:29.508Z,101384.34
2023-10-06T05:08:57.752Z,101375.59
2023-10-06T05:11:28.266Z,101362.13
2023-10-06T05:13:56.599Z,101360.54
2023-10-06T05:16:26.269Z,101360.33
2023-10-06T05:18:54.638Z,101358.33
2023-10-06T05:21:24.205Z,101352.45
2023-10-06T05:23:52.418Z,101357.92
2023-10-06T05:26:23.317Z,101355.73
2023-10-06T05:28:51.689Z,101352.66
2023-10-06T05:31:21.377Z,101345.75
2023-10-06T05:33:49.631Z,101339.25
2023-10-06T05:36:21.708Z,101339.48
2023-10-06T05:38:50.160Z,101347.48
2023-10-06T05:41:19.707Z,101345.16
2023-10-06T05:43:48.014Z,101339.58
2023-10-06T05:46:16.780Z,101320.94
2023-10-06T05:48:45.013Z,101325.08
2023-10-06T05:51:14.689Z,101324.34
2023-10-06T05:53:42.958Z,101313.40
2023-10-06T05:56:13.879Z,101317.69
2023-10-06T05:58:43.245Z,101315.90
2023-10-06T06:01:12.973Z,101306.91
2023-10-06T06:03:41.313Z,101304.61
2023-10-06T06:06:11.580Z,101297.02
2023-10-06T06:08:39.826Z,101286.77
2023-10-06T06:11:10.485Z,101284.64
2023-10-06T06:13:38.781Z,101280.43
2023-10-06T06:16:09.390Z,101273.77
2023-10-06T06:18:37.704Z,101265.35
2023-10-06T06:21:08.209Z,101261.75
2023-10-06T06:23:36.624Z,101262.58
2023-10-06T06:26:06.264Z,101267.82
2023-10-06T06:28:34.645Z,101258.17
2023-10-06T06:31:04.289Z,101262.18
2023-10-06T06:33:32.578Z,101261.33
2023-10-06T06:36:03.320Z,101259.89
2023-10-06T06:38:31.567Z,101257.25
2023-10-06T06:41:02.115Z,101257.92
2023-10-06T06:43:30.381Z,101254.41
2023-10-06T06:46:00.936Z,101256.02
2023-10-06T06:48:29.240Z,101254.38
2023-10-06T06:50:58.817Z,101246.52
2023-10-06T06:53:27.081Z,101243.15
2023-10-06T06:55:57.869Z,101245.46
2023-10-06T06:58:26.128Z,101248.98
2023-10-06T07:00:56.691Z,101245.20
2023-10-06T07:03:25.406Z,101241.73
2023-10-06T07:05:54.986Z,101244.39
2023-10-06T07:08:23.343Z,101241.42
2023-10-06T07:10:53.016Z,101236.23
2023-10-06T07:13:21.438Z,101232.96
2023-10-06T07:15:52.126Z,101227.59
2023-10-06T07:18:20.624Z,101230.52
2023-10-06T07:20:50.326Z,101230.98
2023-10-06T07:23:18.618Z,101214.23
2023-10-06T07:25:49.174Z,101221.27
2023-10-06T07:28:17.392Z,101217.37
2023-10-06T07:30:47.989Z,101217.50
2023-10-06T07:33:16.300Z,101216.61
2023-10-06T07:35:46.801Z,101224.27
2023-10-06T07:38:15.307Z,101222.78
2023-10-06T07:40:45.274Z,101217.33
2023-10-06T07:43:13.533Z,101211.69
2023-10-06T07:45:44.313Z,101213.10
2023-10-06T07:48:12.553Z,101205.11
2023-10-06T07:50:43.119Z,101194.86
2023-10-06T07:53:11.365Z,101196.09
2023-10-06T07:55:41.020Z,101196.44
2023-10-06T07:58:09.495Z,101195.77
2023-10-06T08:00:39.198Z,101184.55
2023-10-06T08:03:07.453Z,101190.77
2023-10-06T08:05:37.521Z,101183.31
2023-10-06T08:08:06.214Z,101180.17
2023-10-06T08:10:35.843Z,101182.00
2023-10-06T08:13:04.249Z,101176.95
2023-10-06T08:15:34.467Z,101175.21
2023-10-06T08:18:03.137Z,101167.41
2023-10-06T08:20:32.905Z,101171.19
2023-10-06T08:23:01.357Z,101167.27
2023-10-06T08:25:37.468Z,101168.58
2023-10-06T08:28:10.182Z,101162.65
2023-10-06T08:30:38.456Z,101163.82
2023-10-06T08:33:08.095Z,101152.91
2023-10-06T08:35:36.793Z,101149.55
2023-10-06T08:38:06.312Z,101141.23
2023-10-06T08:40:43.013Z,101144.31
2023-10-06T08:43:19.824Z,101147.55
2023-10-06T08:45:52.586Z,101142.92
2023-10-06T08:48:24.182Z,101141.66
2023-10-06T08:50:56.130Z,101139.73
2023-10-06T08:53:27.149Z,101141.48
2023-10-06T08:55:56.824Z,101138.04
2023-10-06T08:58:25.202Z,101137.55
2023-10-06T09:00:56.477Z,101135.43
2023-10-06T09:03:28.222Z,101137.47
2023-10-06T09:05:59.063Z,101130.46
2023-10-06T09:08:40.431Z,101131.44
2023-10-06T09:11:10.667Z,101129.73
2023-10-06T09:13:39.438Z,101124.35
2023-10-06T09:16:09.032Z,101129.40
2023-10-06T09:18:37.583Z,101124.29
2023-10-06T09:21:17.211Z,101113.96
2023-10-06T09:23:48.859Z,101107.73
2023-10-06T09:26:29.628Z,101107.67
2023-10-06T09:28:59.258Z,101099.10
2023-10-06T09:31:40.275Z,101100.27
2023-10-06T09:34:11.070Z,101098.95
2023-10-06T09:36:44.773Z,101085.69
2023-10-06T09:39:27.743Z,101087.01
2023-10-06T09:41:57.966Z,101089.88
2023-10-06T09:44:28.342Z,101073.92
2023-10-06T09:47:01.684Z,101064.30
2023-10-06T09:49:32.539Z,101063.23
2023-10-06T09:52:03.705Z,101052.70
2023-10-06T09:54:32.560Z,101049.91
2023-10-06T09:57:03.955Z,101046.84
2023-10-06T09:59:33.816Z,101050.71
2023-10-06T10:02:06.527Z,101051.52
2023-10-06T10:04:35.524Z,101048.35
2023-10-06T10:07:07.264Z,101047.98
2023-10-06T10:09:36.837Z,101041.93
2023-10-06T10:12:35.848Z,101038.36
2023-10-06T10:15:33.353Z,101027.99
2023-10-06T10:18:35.852Z,101018.73
2023-10-06T10:21:07.439Z,101014.80
2023-10-06T10:23:41.346Z,101011.55
2023-10-06T10:26:28.492Z,101004.91
2023-10-06T10:29:13.257Z,101003.31
2023-10-06T10:32:00.105Z,100995.73
2023-10-06T10:35:06.507Z,101000.89
2023-10-06T10:38:04.311Z,100999.48
2023-10-06T10:40:49.506Z,100996.62
2023-10-06T10:43:19.180Z,100993.42
2023-10-06T10:45:47.944Z,100994.69
2023-10-06T10:48:17.603Z,100989.07
2023-10-06T10:50:54.942Z,100977.70
2023-10-06T10:53:28.904Z,100979.47
2023-10-06T10:55:59.144Z,100974.50
2023-10-06T10:58:45.458Z,100982.27
2023-10-06T11:01:36.027Z,100973.05
2023-10-06T11:04:12.164Z,100977.09
2023-10-06T11:06:43.640Z,100966.27
2023-10-06T11:09:14.750Z,100963.90
2023-10-06T11:11:44.373Z,100960.02
2023-10-06T11:14:12.878Z,100961.10
2023-10-06T11:16:46.485Z,100960.65
2023-10-06T11:19:17.898Z,100953.80
2023-10-06T11:21:46.870Z,100946.35
2023-10-06T11:24:29.117Z,100940.59
2023-10-06T11:26:58.658Z,100944.21
2023-10-06T11:29:32.960Z,100944.85
2023-10-06T11:32:03.800Z,100940.75
2023-10-06T11:34:33.156Z,100935.98
2023-10-06T11:37:02.987Z,100938.19
2023-10-06T11:39:31.556Z,100925.75
2023-10-06T11:42:25.902Z,100915.72
2023-10-06T11:44:58.279Z,100914.30
2023-10-06T11:47:29.465Z,100918.40
2023-10-06T11:50:02.270Z,100923.77
2023-10-06T11:52:30.866Z,100919.52
2023-10-06T11:55:01.069Z,100911.69
2023-10-06T11:57:47.362Z,100902.92
2023-10-06T12:00:18.045Z,100901.91
2023-10-06T12:02:52.956Z,100895.27
2023-10-06T12:05:23.266Z,100884.18
2023-10-06T12:07:52.355Z,100875.00
2023-10-06T12:10:22.160Z,100871.40
2023-10-06T12:12:51.032Z,100879.41
2023-10-06T12:15:20.699Z,100874.66
2023-10-06T12:17:49.038Z,100874.25
2023-10-06T12:20:18.853Z,100869.75
2023-10-06T12:22:47.609Z,100865.48
2023-10-06T12:25:17.553Z,100855.26
2023-10-06T12:27:46.219Z,100843.39
2023-10-06T12:30:19.482Z,100844.38
2023-10-06T12:32:48.111Z,100837.39
2023-10-06T12:35:17.798Z,100845.47
2023-10-06T12:37:48.423Z,100843.05
2023-10-06T12:40:18.078Z,100837.77
2023-10-06T12:42:46.479Z,100843.69
2023-10-06T12:45:17.023Z,100837.86
2023-10-06T12:47:48.252Z,100829.14
2023-10-06T12:50:20.435Z,100825.57
2023-10-06T12:52:51.786Z,100818.52
2023-10-06T12:55:22.367Z,100818.98
2023-10-06T12:57:53.103Z,100815.16
2023-10-06T13:00:22.884Z,100803.56
2023-10-06T13:02:51.354Z,100799.02
2023-10-06T13:05:21.410Z,100792.15
2023-10-06T13:07:51.407Z,100794.07
2023-10-06T13:10:21.669Z,100795.80
2023-10-06T13:12:51.979Z,100788.45
2023-10-06T13:15:21.570Z,100789.25
2023-10-06T13:17:50.373Z,100777.86
2023-10-06T13:20:20.062Z,100785.41
2023-10-06T13:22:48.434Z,100772.35
2023-10-06T13:25:18.157Z,100759.89
2023-10-06T13:27:47.311Z,100752.04
2023-10-06T13:30:17.623Z,100748.30
2023-10-06T13:32:49.798Z,100752.90
2023-10-06T13:35:20.871Z,100753.66
2023-10-06T13:37:49.625Z,100752.94
2023-10-06T13:40:19.297Z,100753.06
2023-10-06T13:42:50.112Z,100755.94
2023-10-06T13:45:23.467Z,100767.09
2023-10-06T13:47:55.188Z,100764.31
2023-10-06T13:50:29.271Z,100752.11
2023-10-06T13:52:58.139Z,100746.40
2023-10-06T13:55:27.740Z,100739.46
2023-10-06T13:57:57.075Z,100732.56
2023-10-06T14:00:26.645Z,100729.48
2023-10-06T14:02:55.209Z,100720.80
2023-10-06T14:05:24.873Z,100715.98
2023-10-06T14:07:53.068Z,100708.02
2023-10-06T14:10:23.760Z,100706.71
2023-10-06T14:12:52.109Z,100698.92
2023-10-06T14:15:21.768Z,100699.05
2023-10-06T14:17:51.004Z,100703.83
2023-10-06T14:20:20.565Z,100704.77
2023-10-06T14:22:48.874Z,100704.27
2023-10-06T14:25:19.627Z,100704.55
2023-10-06T14:27:50.747Z,100713.95
2023-10-06T14:30:20.353Z,100711.05
2023-10-06T14:32:50.112Z,100708.75
2023-10-06T14:35:18.861Z,100708.36
2023-10-06T14:37:48.513Z,100704.36
2023-10-06T14:40:18.033Z,100706.27
2023-10-06T14:42:46.290Z,100710.60
2023-10-06T14:45:16.838Z,100704.39
2023-10-06T14:47:45.058Z,100699.23
2023-10-06T14:50:15.648Z,100701.46
2023-10-06T14:52:44.068Z,100688.35
2023-10-06T14:55:13.655Z,100674.26
2023-10-06T14:57:42.219Z,100678.44
2023-10-06T15:00:12.383Z,100677.71
2023-10-06T15:02:40.709Z,100662.98
2023-10-06T15:05:10.361Z,100665.40
2023-10-06T15:07:38.774Z,100657.17
2023-10-06T15:10:10.006Z,100651.27
2023-10-06T15:12:38.308Z,100644.74
2023-10-06T15:15:08.697Z,100648.83
2023-10-06T15:17:36.999Z,100643.04
2023-10-06T15:20:08.869Z,100640.00
2023-10-06T15:22:37.184Z,100639.65
2023-10-06T15:25:07.450Z,100632.50
2023-10-06T15:27:35.722Z,100635.67
2023-10-06T15:30:07.052Z,100626.82
2023-10-06T15:32:35.413Z,100620.55
2023-10-06T15:35:05.096Z,100607.55
2023-10-06T15:37:33.368Z,100611.34
2023-10-06T15:40:04.920Z,100614.86
2023-10-06T15:42:42.209Z,100614.55
2023-10-06T15:45:11.813Z,100606.26
2023-10-06T15:47:40.196Z,100598.04
2023-10-06T15:50:22.501Z,100594.10
2023-10-06T15:52:51.740Z,100593.88
2023-10-06T15:55:20.011Z,100588.55
2023-10-06T15:57:49.602Z,100591.23
2023-10-06T16:00:17.861Z,100589.44
2023-10-06T16:02:48.458Z,100587.44
2023-10-06T16:05:17.115Z,100588.16
2023-10-06T16:07:46.679Z,100589.02
2023-10-06T16:10:15.081Z,100588.24
2023-10-06T16:12:44.783Z,100580.06
2023-10-06T16:15:13.067Z,100582.09
2023-10-06T16:17:43.842Z,100578.52
2023-10-06T16:20:12.423Z,100575.17
2023-10-06T16:22:41.941Z,100568.27
2023-10-06T16:25:10.287Z,100566.56
2023-10-06T16:27:40.860Z,100549.33
2023-10-06T16:30:09.358Z,100559.88
2023-10-06T16:32:38.932Z,100555.45
2023-10-06T16:35:09.593Z,100551.50
2023-10-06T16:37:39.606Z,100545.35
2023-10-06T16:40:08.906Z,100546.89
2023-10-06T16:42:38.418Z,100547.91
2023-10-06T16:45:08.751Z,100545.94
2023-10-06T16:47:38.914Z,100555.24
2023-10-06T16:50:08.709Z,100550.77
2023-10-06T16:52:38.373Z,100547.34
2023-10-06T16:55:07.428Z,100541.96
2023-10-06T16:57:36.943Z,100531.59
2023-10-06T17:00:06.339Z,100529.86
2023-10-06T17:02:36.778Z,100526.96
2023-10-06T17:05:06.227Z,100515.99
2023-10-06T17:07:35.816Z,100508.00
2023-10-06T17:10:06.535Z,100510.52
2023-10-06T17:12:42.750Z,100513.34
2023-10-06T17:15:12.544Z,100504.32
2023-10-06T17:17:43.089Z,100500.36
2023-10-06T17:20:14.322Z,100500.06
2023-10-06T17:22:43.538Z,100509.29
2023-10-06T17:25:13.841Z,100512.13
2023-10-06T17:27:44.381Z,100496.14
2023-10-06T17:30:16.328Z,100490.27
2023-10-06T17:32:48.101Z,100477.93
2023-10-06T17:35:18.390Z,100471.52
2023-10-06T17:37:46.949Z,100466.48
2023-10-06T17:40:17.168Z,100477.73
2023-10-06T17:42:45.362Z,100478.32
2023-10-06T17:45:16.919Z,100473.09
2023-10-06T17:47:45.487Z,100471.47
2023-10-06T17:50:15.247Z,100466.33
2023-10-06T17:52:43.552Z,100468.81
2023-10-06T17:55:14.125Z,100456.86
2023-10-06T17:57:42.373Z,100463.58
2023-10-06T18:00:13.672Z,100462.14
2023-10-06T18:02:42.172Z,100463.94
2023-10-06T18:05:11.941Z,100464.63
2023-10-06T18:07:40.254Z,100456.16
2023-10-06T18:10:11.936Z,100448.54
2023-10-06T18:12:40.263Z,100457.19
2023-10-06T18:15:10.256Z,100452.73
2023-10-06T18:17:38.624Z,100455.94
2023-10-06T18:20:08.900Z,100447.35
2023-10-06T18:22:37.412Z,100450.80
2023-10-06T18:25:07.548Z,100436.15
2023-10-06T18:27:35.771Z,100436.46
2023-10-06T18:30:07.403Z,100440.25
2023-10-06T18:32:35.616Z,100438.42
2023-10-06T18:35:05.793Z,100443.76
2023-10-06T18:37:34.093Z,100442.84
2023-10-06T18:40:05.237Z,100439.71
2023-10-06T18:42:33.620Z,100433.81
2023-10-06T18:45:03.501Z,100434.18
2023-10-06T18:47:31.912Z,100441.90
2023-10-06T18:50:01.478Z,100445.41
2023-10-06T18:52:29.768Z,100438.08
2023-10-06T18:55:00.332Z,100424.65
2023-10-06T18:57:28.627Z,100424.09
2023-10-06T18:59:59.140Z,100424.49
2023-10-06T19:02:27.528Z,100430.60
2023-10-06T19:04:57.196Z,100423.11
2023-10-06T19:07:25.480Z,100420.55
2023-10-06T19:09:56.024Z,100417.00
2023-10-06T19:12:24.265Z,100416.45
2023-10-06T19:14:54.804Z,100413.20
2023-10-06T19:17:24.146Z,100413.43
2023-10-06T19:19:53.978Z,100397.12
2023-10-06T19:22:22.329Z,100405.85
2023-10-06T19:24:52.861Z,100407.90
2023-10-06T19:27:21.110Z,100407.27
2023-10-06T19:29:50.787Z,100402.27
2023-10-06T19:32:19.048Z,100405.54
2023-10-06T19:34:48.717Z,100397.13
2023-10-06T19:37:16.988Z,100389.92
2023-10-06T19:39:47.697Z,100393.52
2023-10-06T19:42:16.053Z,100390.85
2023-10-06T19:44:46.592Z,100401.17
2023-10-06T19:47:14.937Z,100408.56
2023-10-06T19:49:44.594Z,100406.98
2023-10-06T19:52:12.851Z,100402.37
2023-10-06T19:54:43.345Z,100413.21
2023-10-06T19:57:11.626Z,100404.29
2023-10-06T19:59:42.935Z,100403.55
2023-10-06T20:02:11.235Z,100399.39
2023-10-06T20:04:40.865Z,100396.34
2023-10-06T20:07:10.106Z,100393.52
2023-10-06T20:09:39.670Z,100389.04
2023-10-06T20:12:07.949Z,100382.23
2023-10-06T20:14:38.464Z,100386.88
2023-10-06T20:17:06.740Z,100380.98
2023-10-06T20:19:36.481Z,100379.04
2023-10-06T20:22:04.746Z,100380.42
2023-10-06T20:24:35.267Z,100378.73
2023-10-06T20:27:03.527Z,100378.86
2023-10-06T20:29:34.084Z,100382.72
2023-10-06T20:32:02.396Z,100380.70
2023-10-06T20:34:32.030Z,100380.31
2023-10-06T20:37:00.380Z,100374.66
2023-10-06T20:39:30.918Z,100370.83
2023-10-06T20:41:59.142Z,100373.80
2023-10-06T20:44:29.699Z,100369.03
2023-10-06T20:46:58.055Z,100375.84
2023-10-06T20:49:27.715Z,100371.19
2023-10-06T20:51:56.062Z,100373.14
2023-10-06T20:54:26.618Z,100366.48
2023-10-06T20:56:54.843Z,100365.34
2023-10-06T20:59:25.421Z,100367.35
2023-10-06T21:01:53.733Z,100357.14
2023-10-06T21:04:23.397Z,100357.10
2023-10-06T21:06:51.712Z,100360.95
2023-10-06T21:09:22.459Z,100365.07
2023-10-06T21:11:51.618Z,100359.98
2023-10-06T21:14:21.352Z,100357.56
2023-10-06T21:16:49.944Z,100343.25
2023-10-06T21:19:19.767Z,100345.29
2023-10-06T21:21:48.083Z,100371.36
2023-10-06T21:24:18.601Z,100373.63
2023-10-06T21:26:46.875Z,100384.15
2023-10-06T21:29:17.540Z,100384.90
2023-10-06T21:31:45.836Z,100403.35
2023-10-06T21:34:15.647Z,100410.48
2023-10-06T21:36:43.887Z,100420.46
2023-10-06T21:39:14.466Z,100408.52
2023-10-06T21:41:42.807Z,100421.72
2023-10-06T21:44:13.342Z,100426.17
2023-10-06T21:46:41.637Z,100439.05
2023-10-06T21:49:11.457Z,100438.92
2023-10-06T21:51:41.290Z,100428.70
2023-10-06T21:54:11.748Z,100411.79
2023-10-06T21:56:40.233Z,100401.91
2023-10-06T21:59:09.912Z,100408.54
2023-10-06T22:01:38.267Z,100414.46
2023-10-06T22:04:07.995Z,100406.42
2023-10-06T22:06:36.369Z,100403.27
2023-10-06T22:09:06.925Z,100395.23
2023-10-06T22:11:35.201Z,100378.94
2023-10-06T22:14:05.031Z,100385.26
2023-10-06T22:16:33.412Z,100394.75
2023-10-06T22:19:03.077Z,100401.80
2023-10-06T22:21:31.465Z,100404.14
2023-10-06T22:24:01.143Z,100397.52
2023-10-06T22:26:31.124Z,100401.02
2023-10-06T22:29:01.881Z,100411.72
2023-10-06T22:31:30.488Z,100402.59
2023-10-06T22:34:00.377Z,100410.42
2023-10-06T22:36:28.638Z,100409.15
2023-10-06T22:38:59.173Z,100412.35
2023-10-06T22:41:27.447Z,100409.73
2023-10-06T22:43:58.058Z,100412.13
2023-10-06T22:46:26.429Z,100408.92
2023-10-06T22:48:56.060Z,100424.67
2023-10-06T22:51:24.378Z,100421.45
2023-10-06T22:53:53.950Z,100421.16
2023-10-06T22:56:22.249Z,100422.13
2023-10-06T22:58:53.049Z,100412.75
2023-10-06T23:01:21.592Z,100412.71
2023-10-06T23:03:51.518Z,100404.58
2023-10-06T23:06:19.828Z,100410.60
2023-10-06T23:08:49.819Z,100424.98
2023-10-06T23:11:18.097Z,100450.84
2023-10-06T23:13:49.513Z,100469.70
2023-10-06T23:16:18.042Z,100467.56
2023-10-06T23:18:47.689Z,100466.60
2023-10-06T23:21:16.145Z,100468.23
2023-10-06T23:23:45.770Z,100483.06
2023-10-06T23:26:14.027Z,100473.48
2023-10-06T23:28:43.644Z,100469.46
2023-10-06T23:31:11.893Z,100463.99
2023-10-06T23:33:41.661Z,100472.64
2023-10-06T23:36:10.012Z,100491.73
2023-10-06T23:38:39.653Z,100518.86
2023-10-06T23:41:07.884Z,100528.44
2023-10-06T23:43:39.233Z,100531.20
2023-10-06T23:46:07.642Z,100513.26
2023-10-06T23:48:37.251Z,100516.14
2023-10-06T23:51:05.516Z,100524.20
2023-10-06T23:53:36.016Z,100539.42
2023-10-06T23:56:04.473Z,100547.24
2023-10-06T23:58:34.946Z,100560.77
